North Lyme, Connecticut
Current Conditions -  °F | °C
As of 5:15 PM on Monday 26 Jan 2015 (Local Time) from KSNC Reporting Station
Light Snow Light Snow  
Wind Chill: 11°   Ceiling: 100
Heat Index: 23°   Visibility: 1.5mi
Dew Point: 21°   Wind: 13mph
Humidity: 93%   Direction: 30°NNE
Pressure: 29.89"   Gusts: 17mph
Location:  41.3657°N, 72.322°W
Report Text: KSNC 262215Z AUTO 03011G15KT 1 1/2SM -SN BKN001 OVC010 M05/M06 A2989 RMK AO2 P0009
Loading
Personal Weather Stations






























Interactive Weather Map New forecast layout! Learn more

10-Day Weather Forecast

Advertisements
Track Severe Weather on mobile